sensor_id;sensor_type;location;lat;lon;timestamp;pressure;altitude;pressure_sealevel;temperature;humidity
5966;BME280;3009;43.224;27.976;2023-05-15T00:00:24;100777.75;;;12.85;100.00
5966;BME280;3009;43.224;27.976;2023-05-15T00:02:53;100768.72;;;12.90;100.00
5966;BME280;3009;43.224;27.976;2023-05-15T00:05:23;100777.75;;;12.85;100.00
5966;BME280;3009;43.224;27.976;2023-05-15T00:07:53;100781.06;;;12.82;100.00
5966;BME280;3009;43.224;27.976;2023-05-15T00:10:21;100785.34;;;12.83;100.00
5966;BME280;3009;43.224;27.976;2023-05-15T00:12:50;100787.72;;;12.85;100.00
5966;BME280;3009;43.224;27.976;2023-05-15T00:15:18;100778.38;;;12.82;100.00
5966;BME280;3009;43.224;27.976;2023-05-15T00:17:46;100781.53;;;12.84;100.00
5966;BME280;3009;43.224;27.976;2023-05-15T00:20:15;100776.97;;;12.85;100.00
5966;BME280;3009;43.224;27.976;2023-05-15T00:22:43;100780.13;;;12.87;100.00
5966;BME280;3009;43.224;27.976;2023-05-15T00:25:13;100777.75;;;12.85;100.00
5966;BME280;3009;43.224;27.976;2023-05-15T00:27:41;100775.19;;;12.80;100.00
5966;BME280;3009;43.224;27.976;2023-05-15T00:30:10;100774.25;;;12.76;100.00
5966;BME280;3009;43.224;27.976;2023-05-15T00:32:39;100785.78;;;12.76;100.00
5966;BME280;3009;43.224;27.976;2023-05-15T00:35:08;100787.53;;;12.81;100.00
5966;BME280;3009;43.224;27.976;2023-05-15T00:37:36;100779.47;;;12.81;100.00
5966;BME280;3009;43.224;27.976;2023-05-15T00:40:05;100769.31;;;12.78;100.00
5966;BME280;3009;43.224;27.976;2023-05-15T00:42:36;100777.09;;;12.80;100.00
5966;BME280;3009;43.224;27.976;2023-05-15T00:45:08;100774.25;;;12.85;100.00
5966;BME280;3009;43.224;27.976;2023-05-15T00:47:39;100776.63;;;12.77;100.00
5966;BME280;3009;43.224;27.976;2023-05-15T00:50:09;100782.16;;;12.81;100.00
5966;BME280;3009;43.224;27.976;2023-05-15T00:52:37;100777.88;;;12.80;100.00
5966;BME280;3009;43.224;27.976;2023-05-15T00:55:06;100772.31;;;12.76;100.00
5966;BME280;3009;43.224;27.976;2023-05-15T00:57:36;100774.56;;;12.83;100.00
5966;BME280;3009;43.224;27.976;2023-05-15T01:00:06;100781.06;;;12.82;100.00
5966;BME280;3009;43.224;27.976;2023-05-15T01:02:36;100785.94;;;12.80;100.00
5966;BME280;3009;43.224;27.976;2023-05-15T01:05:05;100782.66;;;12.83;100.00
5966;BME280;3009;43.224;27.976;2023-05-15T01:07:39;100780.25;;;12.82;100.00
5966;BME280;3009;43.224;27.976;2023-05-15T01:10:11;100781.19;;;12.77;100.00
5966;BME280;3009;43.224;27.976;2023-05-15T01:12:43;100766.28;;;12.71;100.00
5966;BME280;3009;43.224;27.976;2023-05-15T01:15:13;100764.25;;;12.76;100.00
5966;BME280;3009;43.224;27.976;2023-05-15T01:17:41;100766.94;;;12.76;100.00
5966;BME280;3009;43.224;27.976;2023-05-15T01:20:11;100758.38;;;12.66;100.00
5966;BME280;3009;43.224;27.976;2023-05-15T01:22:46;100753.63;;;12.63;100.00
5966;BME280;3009;43.224;27.976;2023-05-15T01:25:42;100748.09;;;12.68;100.00
5966;BME280;3009;43.224;27.976;2023-05-15T01:28:17;100756.78;;;12.65;100.00
5966;BME280;3009;43.224;27.976;2023-05-15T01:30:47;100758.81;;;12.59;100.00
5966;BME280;3009;43.224;27.976;2023-05-15T01:33:21;100765.63;;;12.56;100.00
5966;BME280;3009;43.224;27.976;2023-05-15T01:36:06;100752.69;;;12.67;100.00
5966;BME280;3009;43.224;27.976;2023-05-15T01:38:38;100747.63;;;12.66;100.00
5966;BME280;3009;43.224;27.976;2023-05-15T01:41:09;100741.94;;;12.67;100.00
5966;BME280;3009;43.224;27.976;2023-05-15T01:43:44;100733.06;;;12.67;100.00
5966;BME280;3009;43.224;27.976;2023-05-15T01:46:13;100728.94;;;12.61;100.00
5966;BME280;3009;43.224;27.976;2023-05-15T01:48:45;100716.59;;;12.59;100.00
5966;BME280;3009;43.224;27.976;2023-05-15T01:51:15;100708.53;;;12.68;100.00
5966;BME280;3009;43.224;27.976;2023-05-15T01:53:45;100701.28;;;12.77;100.00
5966;BME280;3009;43.224;27.976;2023-05-15T01:56:14;100699.34;;;12.69;100.00
5966;BME280;3009;43.224;27.976;2023-05-15T01:58:47;100687.97;;;12.64;100.00
5966;BME280;3009;43.224;27.976;2023-05-15T02:01:16;100697.75;;;12.59;100.00
5966;BME280;3009;43.224;27.976;2023-05-15T02:03:46;100699.19;;;12.66;100.00
5966;BME280;3009;43.224;27.976;2023-05-15T02:06:15;100697.78;;;12.68;100.00
5966;BME280;3009;43.224;27.976;2023-05-15T02:08:44;100690.50;;;12.69;100.00
5966;BME280;3009;43.224;27.976;2023-05-15T02:11:14;100688.78;;;12.73;100.00
5966;BME280;3009;43.224;27.976;2023-05-15T02:13:43;100689.06;;;12.63;100.00
5966;BME280;3009;43.224;27.976;2023-05-15T02:16:13;100700.44;;;12.59;100.00
5966;BME280;3009;43.224;27.976;2023-05-15T02:18:42;100693.81;;;12.66;100.00
5966;BME280;3009;43.224;27.976;2023-05-15T02:21:10;100691.94;;;12.75;100.00
5966;BME280;3009;43.224;27.976;2023-05-15T02:23:39;100684.03;;;12.70;100.00
5966;BME280;3009;43.224;27.976;2023-05-15T02:26:16;100679.75;;;12.77;100.00
5966;BME280;3009;43.224;27.976;2023-05-15T02:28:53;100676.88;;;12.74;100.00
5966;BME280;3009;43.224;27.976;2023-05-15T02:31:35;100677.69;;;12.74;100.00
5966;BME280;3009;43.224;27.976;2023-05-15T02:34:14;100678.63;;;12.70;100.00
5966;BME280;3009;43.224;27.976;2023-05-15T02:36:46;100683.38;;;12.73;100.00
5966;BME280;3009;43.224;27.976;2023-05-15T02:39:17;100681.00;;;12.71;100.00
5966;BME280;3009;43.224;27.976;2023-05-15T02:41:49;100682.28;;;12.65;100.00
5966;BME280;3009;43.224;27.976;2023-05-15T02:44:19;100677.22;;;12.64;100.00
5966;BME280;3009;43.224;27.976;2023-05-15T02:46:52;100676.88;;;12.65;100.00
5966;BME280;3009;43.224;27.976;2023-05-15T02:49:21;100668.50;;;12.67;100.00
5966;BME280;3009;43.224;27.976;2023-05-15T02:51:50;100672.13;;;12.71;100.00
5966;BME280;3009;43.224;27.976;2023-05-15T02:54:20;100670.56;;;12.70;100.00
5966;BME280;3009;43.224;27.976;2023-05-15T02:56:48;100676.88;;;12.74;100.00
5966;BME280;3009;43.224;27.976;2023-05-15T02:59:17;100678.94;;;12.77;100.00
5966;BME280;3009;43.224;27.976;2023-05-15T03:01:46;100682.78;;;12.85;100.00
5966;BME280;3009;43.224;27.976;2023-05-15T03:04:17;100681.50;;;12.82;100.00
5966;BME280;3009;43.224;27.976;2023-05-15T03:06:45;100672.47;;;12.78;100.00
5966;BME280;3009;43.224;27.976;2023-05-15T03:09:14;100674.84;;;12.88;100.00
5966;BME280;3009;43.224;27.976;2023-05-15T03:11:43;100673.88;;;12.84;100.00
5966;BME280;3009;43.224;27.976;2023-05-15T03:14:12;100667.88;;;12.87;100.00
5966;BME280;3009;43.224;27.976;2023-05-15T03:16:40;100661.09;;;12.99;100.00
5966;BME280;3009;43.224;27.976;2023-05-15T03:19:09;100660.28;;;13.07;100.00
5966;BME280;3009;43.224;27.976;2023-05-15T03:21:40;100665.50;;;13.03;100.00
5966;BME280;3009;43.224;27.976;2023-05-15T03:24:09;100662.81;;;13.12;100.00
5966;BME280;3009;43.224;27.976;2023-05-15T03:26:37;100651.41;;;13.15;100.00
5966;BME280;3009;43.224;27.976;2023-05-15T03:29:08;100643.47;;;13.19;100.00
5966;BME280;3009;43.224;27.976;2023-05-15T03:31:36;100646.97;;;13.19;100.00
5966;BME280;3009;43.224;27.976;2023-05-15T03:34:04;100649.97;;;13.18;100.00
5966;BME280;3009;43.224;27.976;2023-05-15T03:36:33;100658.03;;;13.26;100.00
5966;BME280;3009;43.224;27.976;2023-05-15T03:39:03;100647.78;;;13.20;100.00
5966;BME280;3009;43.224;27.976;2023-05-15T03:41:32;100650.75;;;13.27;100.00
5966;BME280;3009;43.224;27.976;2023-05-15T03:44:00;100648.22;;;13.22;100.00
5966;BME280;3009;43.224;27.976;2023-05-15T03:46:28;100651.38;;;13.33;100.00
5966;BME280;3009;43.224;27.976;2023-05-15T03:48:57;100647.75;;;13.46;100.00
5966;BME280;3009;43.224;27.976;2023-05-15T03:51:25;100649.97;;;13.53;100.00
5966;BME280;3009;43.224;27.976;2023-05-15T03:53:54;100648.84;;;13.45;100.00
5966;BME280;3009;43.224;27.976;2023-05-15T03:56:23;100657.41;;;13.47;100.00
5966;BME280;3009;43.224;27.976;2023-05-15T03:58:52;100661.53;;;13.36;100.00
5966;BME280;3009;43.224;27.976;2023-05-15T04:01:21;100658.81;;;13.27;100.00
5966;BME280;3009;43.224;27.976;2023-05-15T04:03:49;100664.56;;;13.34;100.00
5966;BME280;3009;43.224;27.976;2023-05-15T04:06:17;100657.88;;;13.49;100.00
5966;BME280;3009;43.224;27.976;2023-05-15T04:08:46;100665.47;;;13.56;100.00
5966;BME280;3009;43.224;27.976;2023-05-15T04:11:14;100678.59;;;13.66;100.00
5966;BME280;3009;43.224;27.976;2023-05-15T04:13:44;100673.38;;;13.61;100.00
5966;BME280;3009;43.224;27.976;2023-05-15T04:16:13;100676.28;;;13.47;100.00
5966;BME280;3009;43.224;27.976;2023-05-15T04:18:41;100682.28;;;13.53;100.00
5966;BME280;3009;43.224;27.976;2023-05-15T04:21:10;100678.25;;;13.68;100.00
5966;BME280;3009;43.224;27.976;2023-05-15T04:23:38;100678.56;;;13.75;100.00
5966;BME280;3009;43.224;27.976;2023-05-15T04:26:07;100674.28;;;13.74;100.00
5966;BME280;3009;43.224;27.976;2023-05-15T04:28:36;100664.97;;;13.71;100.00
5966;BME280;3009;43.224;27.976;2023-05-15T04:31:09;100669.59;;;13.62;100.00
5966;BME280;3009;43.224;27.976;2023-05-15T04:33:38;100672.13;;;13.58;100.00
5966;BME280;3009;43.224;27.976;2023-05-15T04:36:08;100681.09;;;13.80;100.00
5966;BME280;3009;43.224;27.976;2023-05-15T04:38:37;100679.94;;;13.98;100.00
5966;BME280;3009;43.224;27.976;2023-05-15T04:41:05;100690.38;;;14.00;100.00
5966;BME280;3009;43.224;27.976;2023-05-15T04:43:33;100688.19;;;13.93;100.00
5966;BME280;3009;43.224;27.976;2023-05-15T04:46:02;100698.19;;;13.84;100.00
5966;BME280;3009;43.224;27.976;2023-05-15T04:48:32;100701.72;;;13.76;100.00
5966;BME280;3009;43.224;27.976;2023-05-15T04:51:00;100699.13;;;13.97;100.00
5966;BME280;3009;43.224;27.976;2023-05-15T04:53:28;100699.56;;;14.08;100.00
5966;BME280;3009;43.224;27.976;2023-05-15T04:55:57;100696.72;;;14.04;100.00
5966;BME280;3009;43.224;27.976;2023-05-15T04:58:25;100694.06;;;13.95;100.00
5966;BME280;3009;43.224;27.976;2023-05-15T05:00:54;100701.00;;;13.96;100.00
5966;BME280;3009;43.224;27.976;2023-05-15T05:03:22;100694.69;;;13.92;100.00
5966;BME280;3009;43.224;27.976;2023-05-15T05:05:52;100697.50;;;14.05;100.00
5966;BME280;3009;43.224;27.976;2023-05-15T05:08:20;100702.69;;;14.18;100.00
5966;BME280;3009;43.224;27.976;2023-05-15T05:10:54;100698.06;;;14.19;100.00
5966;BME280;3009;43.224;27.976;2023-05-15T05:13:22;100697.84;;;13.94;100.00
5966;BME280;3009;43.224;27.976;2023-05-15T05:15:51;100691.38;;;13.87;100.00
5966;BME280;3009;43.224;27.976;2023-05-15T05:18:19;100688.38;;;13.88;100.00
5966;BME280;3009;43.224;27.976;2023-05-15T05:20:47;100684.34;;;14.03;100.00
5966;BME280;3009;43.224;27.976;2023-05-15T05:23:17;100675.66;;;14.27;100.00
5966;BME280;3009;43.224;27.976;2023-05-15T05:25:46;100674.81;;;14.35;100.00
5966;BME280;3009;43.224;27.976;2023-05-15T05:28:14;100669.00;;;14.25;100.00
5966;BME280;3009;43.224;27.976;2023-05-15T05:30:43;100670.53;;;14.43;100.00
5966;BME280;3009;43.224;27.976;2023-05-15T05:33:12;100683.09;;;14.69;100.00
5966;BME280;3009;43.224;27.976;2023-05-15T05:35:41;100682.66;;;14.79;100.00
5966;BME280;3009;43.224;27.976;2023-05-15T05:38:10;100673.19;;;14.94;100.00
5966;BME280;3009;43.224;27.976;2023-05-15T05:40:40;100670.22;;;15.08;100.00
5966;BME280;3009;43.224;27.976;2023-05-15T05:43:08;100661.72;;;15.18;100.00
5966;BME280;3009;43.224;27.976;2023-05-15T05:45:37;100667.38;;;15.26;100.00
5966;BME280;3009;43.224;27.976;2023-05-15T05:48:05;100662.28;;;15.70;100.00
5966;BME280;3009;43.224;27.976;2023-05-15T05:50:33;100665.41;;;16.05;100.00
5966;BME280;3009;43.224;27.976;2023-05-15T05:53:02;100667.09;;;16.10;100.00
5966;BME280;3009;43.224;27.976;2023-05-15T05:55:30;100671.75;;;16.09;100.00
5966;BME280;3009;43.224;27.976;2023-05-15T05:58:00;100665.91;;;16.60;100.00
5966;BME280;3009;43.224;27.976;2023-05-15T06:00:32;100662.88;;;17.59;99.63
5966;BME280;3009;43.224;27.976;2023-05-15T06:03:00;100666.34;;;18.39;89.35
5966;BME280;3009;43.224;27.976;2023-05-15T06:05:29;100665.16;;;18.92;80.39
5966;BME280;3009;43.224;27.976;2023-05-15T06:07:57;100681.97;;;18.11;86.22
5966;BME280;3009;43.224;27.976;2023-05-15T06:10:28;100688.06;;;19.14;83.28
5966;BME280;3009;43.224;27.976;2023-05-15T06:12:56;100681.44;;;20.24;77.36
5966;BME280;3009;43.224;27.976;2023-05-15T06:15:26;100676.97;;;19.42;77.03
5966;BME280;3009;43.224;27.976;2023-05-15T06:17:54;100670.03;;;20.14;75.16
5966;BME280;3009;43.224;27.976;2023-05-15T06:20:22;100678.75;;;20.54;72.04
5966;BME280;3009;43.224;27.976;2023-05-15T06:22:51;100683.28;;;18.01;83.52
5966;BME280;3009;43.224;27.976;2023-05-15T06:25:20;100687.50;;;18.85;81.91
5966;BME280;3009;43.224;27.976;2023-05-15T06:27:48;100685.56;;;20.14;75.25
5966;BME280;3009;43.224;27.976;2023-05-15T06:30:17;100678.38;;;20.56;68.61
5966;BME280;3009;43.224;27.976;2023-05-15T06:32:46;100672.66;;;19.41;69.11
5966;BME280;3009;43.224;27.976;2023-05-15T06:35:15;100669.63;;;20.69;62.98
5966;BME280;3009;43.224;27.976;2023-05-15T06:37:43;100672.94;;;21.54;57.14
5966;BME280;3009;43.224;27.976;2023-05-15T06:40:16;100673.59;;;20.76;65.47
5966;BME280;3009;43.224;27.976;2023-05-15T06:42:44;100663.44;;;22.37;58.02
5966;BME280;3009;43.224;27.976;2023-05-15T06:45:13;100649.97;;;22.77;53.78
5966;BME280;3009;43.224;27.976;2023-05-15T06:47:41;100662.31;;;23.77;49.76
5966;BME280;3009;43.224;27.976;2023-05-15T06:50:11;100664.66;;;23.78;51.29
5966;BME280;3009;43.224;27.976;2023-05-15T06:52:39;100657.38;;;22.06;53.10
5966;BME280;3009;43.224;27.976;2023-05-15T06:55:08;100658.31;;;21.76;55.06
5966;BME280;3009;43.224;27.976;2023-05-15T06:57:36;100661.50;;;23.58;48.90
5966;BME280;3009;43.224;27.976;2023-05-15T07:00:06;100651.25;;;24.59;45.30
5966;BME280;3009;43.224;27.976;2023-05-15T07:02:34;100642.59;;;22.99;44.95
5966;BME280;3009;43.224;27.976;2023-05-15T07:05:03;100637.22;;;21.70;48.90
5966;BME280;3009;43.224;27.976;2023-05-15T07:07:34;100650.88;;;23.10;47.69
5966;BME280;3009;43.224;27.976;2023-05-15T07:10:02;100648.22;;;23.67;43.74
5966;BME280;3009;43.224;27.976;2023-05-15T07:12:31;100633.72;;;23.24;45.88
5966;BME280;3009;43.224;27.976;2023-05-15T07:15:00;100630.19;;;23.23;46.61
5966;BME280;3009;43.224;27.976;2023-05-15T07:17:31;100627.31;;;21.13;50.78
5966;BME280;3009;43.224;27.976;2023-05-15T07:20:00;100635.72;;;21.35;50.69
5966;BME280;3009;43.224;27.976;2023-05-15T07:22:31;100627.97;;;20.65;53.83
5966;BME280;3009;43.224;27.976;2023-05-15T07:25:12;100616.25;;;20.34;54.79
5966;BME280;3009;43.224;27.976;2023-05-15T07:27:42;100622.56;;;20.42;53.75
5966;BME280;3009;43.224;27.976;2023-05-15T07:30:11;100638.28;;;19.76;57.27
5966;BME280;3009;43.224;27.976;2023-05-15T07:32:40;100639.16;;;19.80;56.88
5966;BME280;3009;43.224;27.976;2023-05-15T07:35:09;100633.41;;;19.62;60.89
5966;BME280;3009;43.224;27.976;2023-05-15T07:37:38;100642.16;;;19.98;62.32
5966;BME280;3009;43.224;27.976;2023-05-15T07:40:07;100651.91;;;20.83;60.15
5966;BME280;3009;43.224;27.976;2023-05-15T07:42:37;100655.28;;;21.06;59.79
5966;BME280;3009;43.224;27.976;2023-05-15T07:45:07;100652.69;;;21.55;57.13
5966;BME280;3009;43.224;27.976;2023-05-15T07:47:36;100639.63;;;21.37;56.18
5966;BME280;3009;43.224;27.976;2023-05-15T07:50:05;100639.19;;;21.32;56.14
5966;BME280;3009;43.224;27.976;2023-05-15T07:52:33;100633.88;;;21.91;52.50
5966;BME280;3009;43.224;27.976;2023-05-15T07:55:02;100638.44;;;21.76;52.19
5966;BME280;3009;43.224;27.976;2023-05-15T07:57:30;100639.50;;;20.28;58.09
5966;BME280;3009;43.224;27.976;2023-05-15T08:00:00;100627.97;;;20.12;51.54
5966;BME280;3009;43.224;27.976;2023-05-15T08:02:36;100619.66;;;20.01;55.03
5966;BME280;3009;43.224;27.976;2023-05-15T08:05:05;100610.69;;;20.27;53.84
5966;BME280;3009;43.224;27.976;2023-05-15T08:07:34;100610.16;;;19.91;54.86
5966;BME280;3009;43.224;27.976;2023-05-15T08:10:02;100623.72;;;19.88;56.99
5966;BME280;3009;43.224;27.976;2023-05-15T08:12:32;100632.72;;;19.69;57.38
5966;BME280;3009;43.224;27.976;2023-05-15T08:15:02;100622.44;;;20.05;55.61
5966;BME280;3009;43.224;27.976;2023-05-15T08:17:31;100635.16;;;19.74;53.33
5966;BME280;3009;43.224;27.976;2023-05-15T08:19:59;100643.59;;;19.45;58.99
5966;BME280;3009;43.224;27.976;2023-05-15T08:22:28;100641.47;;;20.05;55.14
5966;BME280;3009;43.224;27.976;2023-05-15T08:24:57;100635.72;;;19.17;53.00
5966;BME280;3009;43.224;27.976;2023-05-15T08:27:26;100641.56;;;19.39;52.02
5966;BME280;3009;43.224;27.976;2023-05-15T08:29:55;100630.53;;;19.08;50.27
5966;BME280;3009;43.224;27.976;2023-05-15T08:32:24;100640.94;;;19.26;50.79
5966;BME280;3009;43.224;27.976;2023-05-15T08:34:53;100632.50;;;19.54;46.78
5966;BME280;3009;43.224;27.976;2023-05-15T08:37:22;100646.16;;;18.76;51.26
5966;BME280;3009;43.224;27.976;2023-05-15T08:39:50;100633.38;;;18.57;57.70
5966;BME280;3009;43.224;27.976;2023-05-15T08:42:20;100635.88;;;19.05;54.75
5966;BME280;3009;43.224;27.976;2023-05-15T08:44:51;100625.84;;;19.28;52.13
5966;BME280;3009;43.224;27.976;2023-05-15T08:47:20;100621.00;;;18.99;55.54
5966;BME280;3009;43.224;27.976;2023-05-15T08:49:56;100619.13;;;19.45;50.47
5966;BME280;3009;43.224;27.976;2023-05-15T08:52:27;100610.56;;;19.01;45.74
5966;BME280;3009;43.224;27.976;2023-05-15T08:54:56;100614.66;;;18.91;48.43
5966;BME280;3009;43.224;27.976;2023-05-15T08:57:27;100619.25;;;18.32;49.53
5966;BME280;3009;43.224;27.976;2023-05-15T08:59:55;100615.03;;;18.54;50.33
5966;BME280;3009;43.224;27.976;2023-05-15T09:02:24;100605.88;;;18.23;49.03
5966;BME280;3009;43.224;27.976;2023-05-15T09:04:54;100606.47;;;17.97;49.70
5966;BME280;3009;43.224;27.976;2023-05-15T09:07:23;100611.66;;;18.05;50.67
5966;BME280;3009;43.224;27.976;2023-05-15T09:09:52;100602.38;;;18.22;47.89
5966;BME280;3009;43.224;27.976;2023-05-15T09:12:23;100602.22;;;18.15;51.15
5966;BME280;3009;43.224;27.976;2023-05-15T09:15:07;100607.16;;;18.29;51.96
5966;BME280;3009;43.224;27.976;2023-05-15T09:17:35;100602.97;;;18.32;49.50
5966;BME280;3009;43.224;27.976;2023-05-15T09:20:06;100612.41;;;18.57;51.39
5966;BME280;3009;43.224;27.976;2023-05-15T09:22:51;100626.72;;;18.54;51.60
5966;BME280;3009;43.224;27.976;2023-05-15T09:25:34;100627.25;;;18.44;52.66
5966;BME280;3009;43.224;27.976;2023-05-15T09:28:03;100613.75;;;18.48;52.71
5966;BME280;3009;43.224;27.976;2023-05-15T09:30:32;100607.84;;;18.62;58.69
5966;BME280;3009;43.224;27.976;2023-05-15T09:33:01;100607.44;;;18.24;56.31
5966;BME280;3009;43.224;27.976;2023-05-15T09:35:33;100618.22;;;18.56;55.88
5966;BME280;3009;43.224;27.976;2023-05-15T09:38:04;100611.41;;;18.46;53.73
5966;BME280;3009;43.224;27.976;2023-05-15T09:40:35;100616.13;;;19.08;54.35
5966;BME280;3009;43.224;27.976;2023-05-15T09:43:03;100608.03;;;19.54;48.75
5966;BME280;3009;43.224;27.976;2023-05-15T09:45:31;100607.81;;;19.66;42.89
5966;BME280;3009;43.224;27.976;2023-05-15T09:48:04;100601.75;;;20.00;43.33
5966;BME280;3009;43.224;27.976;2023-05-15T09:50:35;100598.00;;;20.08;45.10
5966;BME280;3009;43.224;27.976;2023-05-15T09:53:04;100595.09;;;20.24;44.92
5966;BME280;3009;43.224;27.976;2023-05-15T09:55:33;100601.13;;;20.10;42.86
5966;BME280;3009;43.224;27.976;2023-05-15T09:58:07;100600.44;;;19.67;42.11
5966;BME280;3009;43.224;27.976;2023-05-15T10:00:37;100579.34;;;19.83;41.82
5966;BME280;3009;43.224;27.976;2023-05-15T10:03:16;100593.94;;;19.48;40.91
5966;BME280;3009;43.224;27.976;2023-05-15T10:05:47;100585.94;;;19.59;44.21
5966;BME280;3009;43.224;27.976;2023-05-15T10:08:18;100577.38;;;19.57;45.50
5966;BME280;3009;43.224;27.976;2023-05-15T10:10:54;100577.00;;;19.82;45.08
5966;BME280;3009;43.224;27.976;2023-05-15T10:13:26;100568.16;;;19.39;41.99
5966;BME280;3009;43.224;27.976;2023-05-15T10:15:59;100572.91;;;19.22;47.61
5966;BME280;3009;43.224;27.976;2023-05-15T10:18:30;100572.41;;;19.63;45.99
5966;BME280;3009;43.224;27.976;2023-05-15T10:21:03;100579.50;;;19.21;48.81
5966;BME280;3009;43.224;27.976;2023-05-15T10:23:36;100576.06;;;19.74;49.38
5966;BME280;3009;43.224;27.976;2023-05-15T10:26:09;100576.03;;;19.01;48.20
5966;BME280;3009;43.224;27.976;2023-05-15T10:28:38;100579.28;;;18.68;46.71
5966;BME280;3009;43.224;27.976;2023-05-15T10:31:10;100570.59;;;18.42;50.90
5966;BME280;3009;43.224;27.976;2023-05-15T10:33:40;100571.09;;;18.29;52.80
5966;BME280;3009;43.224;27.976;2023-05-15T10:36:10;100575.91;;;17.84;53.68
5966;BME280;3009;43.224;27.976;2023-05-15T10:38:41;100567.53;;;17.41;58.58
5966;BME280;3009;43.224;27.976;2023-05-15T10:41:10;100581.13;;;18.09;53.75
5966;BME280;3009;43.224;27.976;2023-05-15T10:43:44;100578.19;;;18.33;54.30
5966;BME280;3009;43.224;27.976;2023-05-15T10:46:13;100582.69;;;18.45;60.59
5966;BME280;3009;43.224;27.976;2023-05-15T10:48:42;100581.88;;;18.84;55.70
5966;BME280;3009;43.224;27.976;2023-05-15T10:51:16;100581.06;;;18.05;58.89
5966;BME280;3009;43.224;27.976;2023-05-15T10:53:45;100587.47;;;17.97;57.69
5966;BME280;3009;43.224;27.976;2023-05-15T10:56:14;100583.25;;;18.35;51.75
5966;BME280;3009;43.224;27.976;2023-05-15T10:58:45;100580.78;;;18.10;55.39
5966;BME280;3009;43.224;27.976;2023-05-15T11:01:27;100582.59;;;18.61;53.47
5966;BME280;3009;43.224;27.976;2023-05-15T11:04:08;100580.56;;;18.54;57.49
5966;BME280;3009;43.224;27.976;2023-05-15T11:06:40;100579.97;;;18.65;57.10
5966;BME280;3009;43.224;27.976;2023-05-15T11:09:32;100571.94;;;18.72;59.91
5966;BME280;3009;43.224;27.976;2023-05-15T11:12:01;100583.81;;;18.24;49.79
5966;BME280;3009;43.224;27.976;2023-05-15T11:14:31;100576.50;;;18.09;55.17
5966;BME280;3009;43.224;27.976;2023-05-15T11:17:01;100575.69;;;18.09;54.70
5966;BME280;3009;43.224;27.976;2023-05-15T11:19:36;100565.09;;;17.68;58.17
5966;BME280;3009;43.224;27.976;2023-05-15T11:22:21;100570.50;;;17.68;62.62
5966;BME280;3009;43.224;27.976;2023-05-15T11:24:52;100569.19;;;17.94;60.50
5966;BME280;3009;43.224;27.976;2023-05-15T11:27:22;100565.31;;;17.95;61.17
5966;BME280;3009;43.224;27.976;2023-05-15T11:30:12;100564.56;;;17.62;63.29
5966;BME280;3009;43.224;27.976;2023-05-15T11:32:42;100552.03;;;16.81;69.53
5966;BME280;3009;43.224;27.976;2023-05-15T11:35:11;100557.88;;;16.96;72.21
5966;BME280;3009;43.224;27.976;2023-05-15T11:37:43;100556.41;;;17.14;72.19
5966;BME280;3009;43.224;27.976;2023-05-15T11:40:13;100554.41;;;17.59;70.90
5966;BME280;3009;43.224;27.976;2023-05-15T11:42:57;100554.50;;;17.31;70.29
5966;BME280;3009;43.224;27.976;2023-05-15T11:45:28;100556.25;;;17.55;70.42
5966;BME280;3009;43.224;27.976;2023-05-15T11:47:58;100559.19;;;17.02;70.32
5966;BME280;3009;43.224;27.976;2023-05-15T11:50:29;100547.94;;;17.00;71.99
5966;BME280;3009;43.224;27.976;2023-05-15T11:53:01;100549.59;;;17.05;72.21
5966;BME280;3009;43.224;27.976;2023-05-15T11:55:30;100545.22;;;17.00;69.51
5966;BME280;3009;43.224;27.976;2023-05-15T11:57:59;100555.00;;;17.21;70.47
5966;BME280;3009;43.224;27.976;2023-05-15T12:00:27;100560.31;;;17.01;70.83
5966;BME280;3009;43.224;27.976;2023-05-15T12:02:56;100549.06;;;17.31;73.81
5966;BME280;3009;43.224;27.976;2023-05-15T12:05:24;100546.63;;;17.26;73.25
5966;BME280;3009;43.224;27.976;2023-05-15T12:07:53;100543.44;;;16.92;77.43
5966;BME280;3009;43.224;27.976;2023-05-15T12:10:23;100541.16;;;16.37;78.09
5966;BME280;3009;43.224;27.976;2023-05-15T12:12:51;100525.19;;;16.20;82.76
5966;BME280;3009;43.224;27.976;2023-05-15T12:15:20;100529.34;;;16.29;82.93
5966;BME280;3009;43.224;27.976;2023-05-15T12:17:48;100518.53;;;16.58;82.67
5966;BME280;3009;43.224;27.976;2023-05-15T12:20:17;100517.66;;;16.70;83.14
5966;BME280;3009;43.224;27.976;2023-05-15T12:22:46;100519.56;;;16.53;81.91
5966;BME280;3009;43.224;27.976;2023-05-15T12:25:14;100519.59;;;16.41;83.36
5966;BME280;3009;43.224;27.976;2023-05-15T12:27:44;100517.16;;;16.64;78.64
5966;BME280;3009;43.224;27.976;2023-05-15T12:30:13;100522.81;;;16.18;86.25
5966;BME280;3009;43.224;27.976;2023-05-15T12:32:42;100524.16;;;15.84;93.69
5966;BME280;3009;43.224;27.976;2023-05-15T12:35:11;100524.81;;;15.93;92.17
5966;BME280;3009;43.224;27.976;2023-05-15T12:37:40;100524.34;;;15.91;91.27
5966;BME280;3009;43.224;27.976;2023-05-15T12:40:09;100530.63;;;16.48;89.01
5966;BME280;3009;43.224;27.976;2023-05-15T12:42:40;100530.28;;;16.50;89.79
5966;BME280;3009;43.224;27.976;2023-05-15T12:45:14;100541.84;;;16.34;88.32
5966;BME280;3009;43.224;27.976;2023-05-15T12:47:44;100542.53;;;16.31;90.09
5966;BME280;3009;43.224;27.976;2023-05-15T12:50:15;100536.16;;;16.52;89.35
5966;BME280;3009;43.224;27.976;2023-05-15T12:52:50;100527.38;;;16.99;84.81
5966;BME280;3009;43.224;27.976;2023-05-15T12:55:23;100530.31;;;16.94;81.99
5966;BME280;3009;43.224;27.976;2023-05-15T12:57:52;100538.91;;;17.12;79.95
5966;BME280;3009;43.224;27.976;2023-05-15T13:00:22;100533.78;;;16.50;84.82
5966;BME280;3009;43.224;27.976;2023-05-15T13:02:53;100528.81;;;16.80;84.25
5966;BME280;3009;43.224;27.976;2023-05-15T13:05:22;100526.75;;;17.06;83.90
5966;BME280;3009;43.224;27.976;2023-05-15T13:07:51;100527.31;;;16.95;83.00
5966;BME280;3009;43.224;27.976;2023-05-15T13:10:20;100519.91;;;16.52;87.66